createdAt,value
2022-08-12T00:00:10.840Z,100907.00
2022-08-12T00:02:56.347Z,100684.63
2022-08-12T00:06:01.931Z,100898.78
2022-08-12T00:08:48.105Z,100618.19
2022-08-12T00:11:33.685Z,100893.66
2022-08-12T00:14:19.093Z,100803.28
2022-08-12T00:17:06.470Z,100914.41
2022-08-12T00:19:52.075Z,100891.31
2022-08-12T00:22:38.616Z,100854.38
2022-08-12T00:26:01.392Z,100867.22
2022-08-12T00:28:30.709Z,100892.66
2022-08-12T00:31:16.729Z,100738.53
2022-08-12T00:34:03.624Z,100889.53
2022-08-12T00:36:51.331Z,100885.34
2022-08-12T00:39:37.145Z,100719.97
2022-08-12T00:42:10.814Z,100879.13
2022-08-12T00:44:40.089Z,100725.81
2022-08-12T00:47:09.432Z,100828.97
2022-08-12T00:49:55.683Z,100804.25
2022-08-12T00:52:25.305Z,100894.28
2022-08-12T00:54:57.120Z,100872.97
2022-08-12T00:57:27.091Z,100887.56
2022-08-12T00:59:57.409Z,100833.59
2022-08-12T01:02:26.896Z,100892.09
2022-08-12T01:05:15.869Z,100854.19
2022-08-12T01:08:02.773Z,100848.78
2022-08-12T01:10:50.365Z,100863.09
2022-08-12T01:13:20.624Z,100895.34
2022-08-12T01:15:51.777Z,100898.00
2022-08-12T01:18:21.564Z,100626.16
2022-08-12T01:21:00.711Z,100788.97
2022-08-12T01:23:50.187Z,100763.34
2022-08-12T01:26:21.233Z,100907.19
2022-08-12T01:28:51.062Z,100902.13
2022-08-12T01:31:20.296Z,100867.72
2022-08-12T01:33:59.744Z,100896.34
2022-08-12T01:36:29.316Z,100895.56
2022-08-12T01:39:00.050Z,100741.34
2022-08-12T01:41:32.523Z,100788.38
2022-08-12T01:44:02.310Z,100893.28
2022-08-12T01:46:42.896Z,100731.44
2022-08-12T01:49:32.895Z,100861.59
2022-08-12T01:52:21.312Z,100873.59
2022-08-12T01:54:51.136Z,100893.97
2022-08-12T01:57:59.064Z,100868.16
2022-08-12T02:00:19.492Z,100725.19
2022-08-12T02:03:03.473Z,100882.44
2022-08-12T02:06:01.282Z,100782.59
2022-08-12T02:08:52.542Z,100861.06
2022-08-12T02:11:24.070Z,100890.47
2022-08-12T02:14:06.737Z,100865.41
2022-08-12T02:16:51.672Z,100889.94
2022-08-12T02:19:50.414Z,100893.66
2022-08-12T02:22:28.534Z,100888.63
2022-08-12T02:25:04.576Z,100795.88
2022-08-12T02:27:39.361Z,100893.97
2022-08-12T02:30:11.708Z,100688.22
2022-08-12T02:32:41.812Z,100891.59
2022-08-12T02:35:14.866Z,100898.63
2022-08-12T02:37:45.410Z,100720.09
2022-08-12T02:40:15.428Z,100900.63
2022-08-12T02:42:51.349Z,100777.50
2022-08-12T02:45:26.852Z,100847.88
2022-08-12T02:48:00.898Z,100692.56
2022-08-12T02:50:32.467Z,100705.25
2022-08-12T02:53:01.104Z,100829.75
2022-08-12T02:55:34.865Z,100908.13
2022-08-12T02:58:06.968Z,100910.03
2022-08-12T03:00:39.665Z,100851.28
2022-08-12T03:03:09.090Z,100847.16
2022-08-12T03:05:44.326Z,100902.91
2022-08-12T03:08:19.097Z,100912.16
2022-08-12T03:11:04.732Z,100855.06
2022-08-12T03:13:43.147Z,100902.91
2022-08-12T03:16:12.791Z,100738.91
2022-08-12T03:18:45.804Z,100902.22
2022-08-12T03:21:52.780Z,100864.25
2022-08-12T03:24:09.192Z,100667.72
2022-08-12T03:26:38.028Z,100785.84
2022-08-12T03:29:09.637Z,100903.38
2022-08-12T03:31:39.251Z,100710.69
2022-08-12T03:34:10.542Z,100782.56
2022-08-12T03:36:40.353Z,100876.03
2022-08-12T03:39:35.638Z,100903.72
2022-08-12T03:42:38.404Z,100857.03
2022-08-12T03:45:32.373Z,100900.63
2022-08-12T03:48:27.723Z,100906.81
2022-08-12T03:51:14.094Z,100760.69
2022-08-12T03:54:00.602Z,100913.81
2022-08-12T03:56:46.031Z,100920.81
2022-08-12T03:59:32.315Z,100920.97
2022-08-12T04:02:00.407Z,100823.38
2022-08-12T04:04:34.693Z,100921.03
2022-08-12T04:07:03.728Z,100892.66
2022-08-12T04:09:31.815Z,100919.44
2022-08-12T04:12:17.129Z,100881.78
2022-08-12T04:14:45.434Z,100918.72
2022-08-12T04:17:14.386Z,100897.47
2022-08-12T04:19:44.042Z,100924.81
2022-08-12T04:22:12.518Z,100919.63
2022-08-12T04:24:41.609Z,100655.63
2022-08-12T04:27:12.502Z,100844.03
2022-08-12T04:30:16.726Z,100924.72
2022-08-12T04:32:28.921Z,100931.63
2022-08-12T04:34:58.870Z,100910.44
2022-08-12T04:37:26.899Z,100892.38
2022-08-12T04:39:55.199Z,100891.59
2022-08-12T04:42:23.724Z,100925.19
2022-08-12T04:44:51.539Z,100925.03
2022-08-12T04:47:21.772Z,100915.44
2022-08-12T04:49:49.700Z,100919.56
2022-08-12T04:52:19.574Z,100921.53
2022-08-12T04:54:49.197Z,100913.13
2022-08-12T04:57:17.018Z,100917.34
2022-08-12T04:59:48.247Z,100917.44
2022-08-12T05:02:21.534Z,100917.47
2022-08-12T05:04:52.327Z,100866.25
2022-08-12T05:07:24.116Z,100907.66
2022-08-12T05:10:00.630Z,100904.78
2022-08-12T05:12:38.440Z,100914.16
2022-08-12T05:15:19.770Z,100881.44
2022-08-12T05:18:00.133Z,100901.44
2022-08-12T05:20:45.040Z,100836.56
2022-08-12T05:23:17.884Z,100902.88
2022-08-12T05:25:47.494Z,100896.38
2022-08-12T05:28:16.196Z,100900.53
2022-08-12T05:30:46.679Z,100896.91
2022-08-12T05:33:15.456Z,100848.75
2022-08-12T05:35:45.691Z,100843.78
2022-08-12T05:38:34.137Z,100889.34
2022-08-12T05:41:03.296Z,100895.13
2022-08-12T05:43:31.195Z,100901.59
2022-08-12T05:45:58.974Z,100900.56
2022-08-12T05:48:27.420Z,100898.22
2022-08-12T05:50:56.650Z,100866.13
2022-08-12T05:53:25.763Z,100898.13
2022-08-12T05:55:54.756Z,100898.31
2022-08-12T05:58:22.516Z,100890.72
2022-08-12T06:00:50.342Z,100887.75
2022-08-12T06:03:19.724Z,100896.63
2022-08-12T06:05:54.819Z,100893.88
2022-08-12T06:08:26.448Z,100878.38
2022-08-12T06:10:56.979Z,100899.38
2022-08-12T06:13:28.008Z,100897.66
2022-08-12T06:16:14.332Z,100891.16
2022-08-12T06:18:43.075Z,100896.47
2022-08-12T06:21:12.215Z,100890.00
2022-08-12T06:23:42.803Z,100886.28
2022-08-12T06:26:12.699Z,100886.47
2022-08-12T06:28:41.305Z,100885.13
2022-08-12T06:31:25.851Z,100880.50
2022-08-12T06:34:52.846Z,100882.16
2022-08-12T06:36:44.180Z,100886.34
2022-08-12T06:39:15.458Z,100891.38
2022-08-12T06:42:32.061Z,100879.75
2022-08-12T06:44:50.436Z,100882.88
2022-08-12T06:47:19.338Z,100880.03
2022-08-12T06:49:49.465Z,100877.94
2022-08-12T06:52:19.242Z,100876.06
2022-08-12T06:54:48.355Z,100875.16
2022-08-12T06:58:05.548Z,100873.81
2022-08-12T07:00:05.602Z,100878.88
2022-08-12T07:02:36.886Z,100881.88
2022-08-12T07:05:05.526Z,100879.75
2022-08-12T07:07:33.262Z,100871.06
2022-08-12T07:10:07.402Z,100877.91
2022-08-12T07:12:36.755Z,100879.75
2022-08-12T07:15:05.354Z,100878.94
2022-08-12T07:17:37.247Z,100880.94
2022-08-12T07:20:09.981Z,100873.72
2022-08-12T07:22:39.649Z,100877.28
2022-08-12T07:25:27.271Z,100871.59
2022-08-12T07:27:55.352Z,100864.25
2022-08-12T07:30:23.817Z,100874.00
2022-08-12T07:32:52.213Z,100875.38
2022-08-12T07:35:20.858Z,100873.16
2022-08-12T07:37:50.326Z,100870.63
2022-08-12T07:40:20.171Z,100868.56
2022-08-12T07:42:48.411Z,100872.75
2022-08-12T07:45:16.243Z,100871.47
2022-08-12T07:47:44.795Z,100876.47
2022-08-12T07:50:13.842Z,100870.75
2022-08-12T07:52:44.320Z,100878.34
2022-08-12T07:55:12.995Z,100870.81
2022-08-12T07:57:53.471Z,100886.06
2022-08-12T08:00:21.757Z,100867.41
2022-08-12T08:02:50.297Z,100885.28
2022-08-12T08:05:19.392Z,100881.66
2022-08-12T08:07:48.093Z,100879.47
2022-08-12T08:10:16.774Z,100883.19
2022-08-12T08:12:58.026Z,100879.72
2022-08-12T08:16:00.782Z,100878.34
2022-08-12T08:18:26.920Z,100876.72
2022-08-12T08:20:57.181Z,100877.97
2022-08-12T08:23:56.524Z,100874.00
2022-08-12T08:26:27.194Z,100870.94
2022-08-12T08:28:55.153Z,100872.00
2022-08-12T08:31:24.221Z,100872.97
2022-08-12T08:34:01.358Z,100872.16
2022-08-12T08:36:43.565Z,100870.34
2022-08-12T08:39:14.569Z,100871.00
2022-08-12T08:42:16.030Z,100865.97
2022-08-12T08:44:49.805Z,100856.66
2022-08-12T08:47:27.291Z,100860.13
2022-08-12T08:50:00.816Z,100855.31
2022-08-12T08:52:39.374Z,100851.31
2022-08-12T08:55:10.144Z,100853.00
2022-08-12T08:57:42.873Z,100855.09
2022-08-12T09:03:04.427Z,100856.53
2022-08-12T09:06:03.001Z,100848.22
2022-08-12T09:08:31.005Z,100848.97
2022-08-12T09:12:07.024Z,100844.34
2022-08-12T09:14:11.852Z,100851.38
2022-08-12T09:16:42.569Z,100845.28
2022-08-12T09:19:27.412Z,100846.13
2022-08-12T09:21:57.220Z,100830.88
2022-08-12T09:24:28.129Z,100833.13
2022-08-12T09:26:58.983Z,100829.78
2022-08-12T09:30:08.801Z,100827.25
2022-08-12T09:32:56.129Z,100847.63
2022-08-12T09:35:03.751Z,100836.69
2022-08-12T09:37:58.591Z,100840.72
2022-08-12T09:41:03.860Z,100845.72
2022-08-12T09:43:26.572Z,100825.53
2022-08-12T09:46:11.550Z,100837.00
2022-08-12T09:48:56.447Z,100845.69
2022-08-12T09:51:37.565Z,100827.91
2022-08-12T09:54:30.883Z,100812.53
2022-08-12T09:57:00.873Z,100814.72
2022-08-12T10:00:13.023Z,100825.03
2022-08-12T10:02:44.095Z,100815.56
2022-08-12T10:05:13.701Z,100816.72
2022-08-12T10:07:43.194Z,100809.69
2022-08-12T10:10:22.939Z,100788.09
2022-08-12T10:13:34.869Z,100801.47
2022-08-12T10:16:05.528Z,100800.00
2022-08-12T10:18:35.497Z,100798.56
2022-08-12T10:21:07.740Z,100802.16
2022-08-12T10:23:39.962Z,100788.03
2022-08-12T10:26:36.891Z,100782.06
2022-08-12T10:30:37.510Z,100787.78
2022-08-12T10:32:21.246Z,100787.94
2022-08-12T10:34:53.576Z,100772.16
2022-08-12T10:38:33.283Z,100773.84
2022-08-12T10:40:20.510Z,100762.09
2022-08-12T10:43:08.359Z,100764.03
2022-08-12T10:45:38.380Z,100779.59
2022-08-12T10:48:21.357Z,100747.41
2022-08-12T10:51:02.612Z,100707.09
2022-08-12T10:53:44.164Z,100565.75
2022-08-12T10:56:16.455Z,100550.94
2022-08-12T11:04:32.099Z,100683.72
2022-08-12T11:04:49.186Z,100746.84
2022-08-12T11:08:33.577Z,100637.69
2022-08-12T11:10:07.573Z,100564.06
2022-08-12T11:13:45.862Z,100560.25
2022-08-12T11:17:42.690Z,100724.00
2022-08-12T11:20:51.998Z,100573.78
2022-08-12T11:23:25.018Z,100590.44
2022-08-12T11:26:06.522Z,100641.06
2022-08-12T11:28:37.814Z,100710.72
2022-08-12T11:31:14.533Z,100713.53
2022-08-12T12:06:00.587Z,100478.59
2022-08-12T12:12:49.927Z,100430.44
2022-08-12T12:15:45.171Z,100466.03
2022-08-12T12:18:57.327Z,100433.56
2022-08-12T12:21:57.653Z,100691.44
2022-08-12T12:28:36.914Z,100553.00
2022-08-12T12:32:11.525Z,100460.13
2022-08-12T12:35:13.798Z,100492.13
2022-08-12T12:38:48.495Z,100432.16
2022-08-12T12:41:22.351Z,100535.81
2022-08-12T12:44:50.831Z,100673.94
2022-08-12T12:47:31.724Z,100463.53
2022-08-12T12:50:34.914Z,100439.97
2022-08-12T12:57:00.556Z,100545.63
2022-08-12T13:00:16.317Z,100439.50
2022-08-12T13:03:00.875Z,100444.81
2022-08-12T13:06:12.445Z,100654.81
2022-08-12T13:09:11.143Z,100605.59
2022-08-12T13:12:33.923Z,100619.97
2022-08-12T13:15:45.432Z,100385.69
2022-08-12T13:18:28.423Z,100412.97
2022-08-12T13:21:05.266Z,100557.78
2022-08-12T13:23:50.367Z,100423.00
2022-08-12T13:26:46.066Z,100460.81
2022-08-12T13:29:45.104Z,100617.88
2022-08-12T13:32:31.340Z,100400.75
2022-08-12T13:35:33.217Z,100456.25
2022-08-12T13:38:10.505Z,100471.22
2022-08-12T13:40:56.068Z,100616.88
2022-08-12T13:43:41.127Z,100376.47
2022-08-12T13:46:12.453Z,100387.53
2022-08-12T13:48:44.727Z,100465.63
2022-08-12T13:51:13.690Z,100601.81
2022-08-12T13:53:55.000Z,100360.84
2022-08-12T13:56:34.682Z,100449.16
2022-08-12T13:59:09.186Z,100564.41
2022-08-12T14:01:50.376Z,100592.66
2022-08-12T14:04:24.971Z,100589.59
2022-08-12T14:06:54.727Z,100587.53
2022-08-12T14:09:22.687Z,100591.84
2022-08-12T14:12:24.300Z,100574.91
2022-08-12T14:15:58.943Z,100576.75
2022-08-12T14:19:25.016Z,100577.97
2022-08-12T14:22:26.002Z,100570.88
2022-08-12T14:25:57.175Z,100584.94
2022-08-12T14:28:57.883Z,100578.00
2022-08-12T14:34:56.527Z,100578.81
2022-08-12T14:37:56.781Z,100571.59
2022-08-12T14:44:57.601Z,100579.47
2022-08-12T14:50:57.447Z,100543.97
2022-08-12T15:08:06.553Z,100319.69
2022-08-12T15:10:54.001Z,100403.63
2022-08-12T15:13:43.357Z,100356.47
2022-08-12T15:16:35.385Z,100488.00
2022-08-12T15:19:12.649Z,100450.72
2022-08-12T15:22:38.734Z,100554.94
2022-08-12T15:24:39.177Z,100562.13
2022-08-12T15:27:08.689Z,100552.94
2022-08-12T15:29:37.428Z,100540.56
2022-08-12T15:32:15.742Z,100551.22
2022-08-12T15:34:43.967Z,100550.97
2022-08-12T15:38:09.203Z,100463.28
2022-08-12T15:40:30.078Z,100547.94
2022-08-12T15:43:11.243Z,100535.44
2022-08-12T15:45:50.871Z,100513.31
2022-08-12T15:48:30.403Z,100453.16
2022-08-12T15:50:58.850Z,100316.59
2022-08-12T15:53:41.409Z,100545.84
2022-08-12T15:56:12.824Z,100545.41
2022-08-12T15:58:42.886Z,100539.44
2022-08-12T16:01:14.899Z,100538.44
2022-08-12T16:03:45.977Z,100543.97
2022-08-12T16:06:52.055Z,100534.91
2022-08-12T16:09:17.419Z,100539.41
2022-08-12T16:12:03.781Z,100532.22
2022-08-12T16:14:46.018Z,100432.91
2022-08-12T16:21:51.761Z,100436.75
2022-08-12T16:28:18.874Z,100512.09
2022-08-12T16:30:54.172Z,100529.16
2022-08-12T16:33:22.928Z,100510.41
2022-08-12T16:36:04.689Z,100525.81
2022-08-12T16:38:34.631Z,100491.78
2022-08-12T16:41:07.226Z,100476.56
2022-08-12T16:43:43.998Z,100442.56
2022-08-12T16:46:32.287Z,100403.00
2022-08-12T16:49:43.586Z,100512.84
2022-08-12T16:52:14.405Z,100478.84
2022-08-12T16:54:59.176Z,100464.63
2022-08-12T16:58:30.383Z,100509.09
2022-08-12T17:01:08.967Z,100427.75
2022-08-12T17:03:47.122Z,100508.56
2022-08-12T17:06:29.156Z,100506.03
2022-08-12T17:09:40.226Z,100481.41
2022-08-12T17:12:10.627Z,100379.09
2022-08-12T17:20:29.642Z,100324.94
2022-08-12T17:22:30.819Z,100513.50
2022-08-12T17:25:58.034Z,100489.06
2022-08-12T17:28:41.880Z,100509.22
2022-08-12T17:31:16.423Z,100511.06
2022-08-12T17:34:06.820Z,100521.06
2022-08-12T17:37:02.830Z,100512.00
2022-08-12T17:40:06.478Z,100525.44
2022-08-12T17:42:32.638Z,100513.03
2022-08-12T17:46:00.342Z,100500.00
2022-08-12T17:51:49.969Z,100355.25
2022-08-12T17:58:05.621Z,100433.81
2022-08-12T18:00:42.572Z,100524.75
2022-08-12T18:04:04.968Z,100534.06
2022-08-12T18:06:14.574Z,100529.84
2022-08-12T18:13:40.947Z,100361.09
2022-08-12T18:20:19.075Z,100437.94
2022-08-12T18:29:43.512Z,100295.63
2022-08-12T18:32:53.711Z,100339.72
2022-08-12T18:35:10.936Z,100315.63
2022-08-12T18:37:42.592Z,100457.47
2022-08-12T18:43:21.651Z,100349.34
2022-08-12T18:45:57.627Z,100583.28
2022-08-12T19:04:10.940Z,100521.38
2022-08-12T19:07:05.290Z,100491.19
2022-08-12T19:40:43.092Z,100423.38
2022-08-12T19:43:20.667Z,100342.53
2022-08-12T19:46:08.215Z,100346.84
2022-08-12T19:49:49.726Z,100342.72
2022-08-12T19:52:22.206Z,100422.84
2022-08-12T19:54:56.118Z,100578.88
2022-08-12T20:02:02.691Z,100617.41
2022-08-12T20:24:22.077Z,100420.41
2022-08-12T20:26:52.410Z,100634.84
2022-08-12T20:29:21.175Z,100530.94
2022-08-12T20:31:52.011Z,100410.66
2022-08-12T20:34:21.306Z,100646.25
2022-08-12T20:36:57.192Z,100398.56
2022-08-12T20:39:52.965Z,100547.31
2022-08-12T20:42:31.307Z,100520.91
2022-08-12T20:45:00.894Z,100416.69
2022-08-12T20:47:42.156Z,100565.00
2022-08-12T20:50:15.879Z,100664.34
2022-08-12T20:52:49.151Z,100352.09
2022-08-12T20:55:21.607Z,100634.22
2022-08-12T20:58:10.692Z,100650.78
2022-08-12T21:00:40.687Z,100544.78
2022-08-12T21:03:30.109Z,100371.66
2022-08-12T21:06:19.707Z,100582.06
2022-08-12T21:08:54.322Z,100523.22
2022-08-12T21:11:24.678Z,100420.16
2022-08-12T21:13:59.121Z,100471.09
2022-08-12T21:16:35.443Z,100511.09
2022-08-12T21:19:17.635Z,100371.34
2022-08-12T21:21:58.758Z,100600.28
2022-08-12T21:24:31.665Z,100385.03
2022-08-12T21:27:07.496Z,100440.50
2022-08-12T21:29:49.925Z,100641.00
2022-08-12T21:32:46.780Z,100384.22
2022-08-12T21:35:19.322Z,100415.09
2022-08-12T21:37:53.005Z,100637.34
2022-08-12T21:40:22.086Z,100649.97
2022-08-12T21:43:08.272Z,100550.84
2022-08-12T21:45:46.182Z,100667.69
2022-08-12T21:48:28.419Z,100678.78
2022-08-12T21:50:56.464Z,100667.13
2022-08-12T21:54:05.843Z,100561.56
2022-08-12T21:56:34.573Z,100570.53
2022-08-12T21:59:04.357Z,100653.91
2022-08-12T22:01:44.298Z,100419.22
2022-08-12T22:04:35.449Z,100528.31
2022-08-12T22:07:03.713Z,100678.16
2022-08-12T22:09:43.068Z,100671.47
2022-08-12T22:12:29.258Z,100632.41
2022-08-12T22:14:58.592Z,100674.72
2022-08-12T22:17:33.832Z,100668.94
2022-08-12T22:20:17.947Z,100495.81
2022-08-12T22:22:53.878Z,100581.25
2022-08-12T22:25:27.787Z,100664.81
2022-08-12T22:28:15.593Z,100617.38
2022-08-12T22:31:02.428Z,100670.44
2022-08-12T22:33:30.493Z,100664.78
2022-08-12T22:36:29.220Z,100665.22
2022-08-12T22:38:59.325Z,100670.75
2022-08-12T22:41:45.436Z,100669.16
2022-08-12T22:44:31.640Z,100672.00
2022-08-12T22:47:53.185Z,100669.91
2022-08-12T22:50:27.553Z,100655.88
2022-08-12T22:53:15.014Z,100664.44
2022-08-12T22:55:59.235Z,100661.22
2022-08-12T22:58:33.406Z,100668.53
2022-08-12T23:01:03.293Z,100628.50
2022-08-12T23:03:49.226Z,100666.53
2022-08-12T23:06:21.267Z,100665.03
2022-08-12T23:08:49.841Z,100668.69
2022-08-12T23:11:23.771Z,100635.13
2022-08-12T23:13:56.844Z,100669.00
2022-08-12T23:16:31.066Z,100643.03
2022-08-12T23:19:09.689Z,100663.44
2022-08-12T23:22:06.540Z,100647.06
2022-08-12T23:24:30.336Z,100658.69
2022-08-12T23:27:16.710Z,100664.19
2022-08-12T23:29:59.375Z,100660.13
2022-08-12T23:32:37.246Z,100624.63
2022-08-12T23:35:08.311Z,100652.34
2022-08-12T23:37:46.664Z,100665.28
2022-08-12T23:40:18.264Z,100664.56
2022-08-12T23:42:47.970Z,100667.44
2022-08-12T23:45:19.166Z,100667.56
2022-08-12T23:47:59.160Z,100668.59
2022-08-12T23:50:34.434Z,100662.72
2022-08-12T23:53:05.549Z,100646.47
2022-08-12T23:55:40.762Z,100651.69
2022-08-12T23:58:21.253Z,100588.28
